Time;durP1;ratioP1;P1;durP2;ratioP2;P2;SDS_P1;SDS_P2;PMS_P1;PMS_P2;Temp;Humidity;BMP_temperature;BMP_pressure;BME280_temperature;BME280_humidity;BME280_pressure;Samples;Min_cycle;Max_cycle;Signal;HPM_P1;HPM_P2
2023/03/25 00:00:23;;;;;;;3.60;1.35;;;;;;;7.44;100.00;99343.53;6286120;28;20044;-88
2023/03/25 00:03:28;;;;;;;1.20;0.80;;;;;;;7.36;100.00;99342.56;6287532;28;20074;-88
2023/03/25 00:06:33;;;;;;;3.50;1.30;;;;;;;7.20;100.00;99337.88;6287563;28;20049;-88
2023/03/25 00:09:35;;;;;;;3.38;1.00;;;;;;;7.12;100.00;99335.94;6295097;28;20061;-88
2023/03/25 00:12:37;;;;;;;2.05;0.90;;;;;;;7.06;100.00;99332.13;6289854;28;20040;-88
2023/03/25 00:15:44;;;;;;;3.42;1.10;;;;;;;7.02;100.00;99335.91;6286718;28;20040;-88
2023/03/25 00:18:46;;;;;;;2.88;1.00;;;;;;;7.00;100.00;99330.06;6286267;28;20097;-88
2023/03/25 00:21:51;;;;;;;5.85;1.05;;;;;;;6.97;100.00;99329.50;6284849;28;20064;-88
2023/03/25 00:24:53;;;;;;;2.80;1.10;;;;;;;6.94;100.00;99320.28;6285979;28;20652;-88
2023/03/25 00:27:56;;;;;;;2.60;0.93;;;;;;;6.93;100.00;99322.97;6287808;28;20045;-88
2023/03/25 00:31:01;;;;;;;2.33;1.00;;;;;;;6.80;100.00;99321.44;6282403;28;20057;-88
2023/03/25 00:34:03;;;;;;;1.17;0.80;;;;;;;6.69;100.00;99321.50;6283334;28;20368;-88
2023/03/25 00:37:05;;;;;;;3.78;1.05;;;;;;;6.60;100.00;99327.41;6252127;28;20512;-88
2023/03/25 00:40:07;;;;;;;2.15;1.00;;;;;;;6.48;100.00;99321.50;6279589;28;20055;-88
2023/03/25 00:43:10;;;;;;;1.42;1.10;;;;;;;6.40;100.00;99321.31;6278203;28;20044;-88
2023/03/25 00:46:12;;;;;;;3.95;1.20;;;;;;;6.39;100.00;99324.84;6284695;28;20060;-88
2023/03/25 00:49:14;;;;;;;3.72;1.15;;;;;;;6.39;100.00;99323.06;6284161;28;20047;-88
2023/03/25 00:52:17;;;;;;;2.00;0.80;;;;;;;6.41;100.00;99331.47;6283374;28;20086;-88
2023/03/25 00:55:20;;;;;;;2.55;1.30;;;;;;;6.45;100.00;99325.13;6276691;28;20048;-88
2023/03/25 00:58:22;;;;;;;3.90;1.10;;;;;;;6.56;100.00;99328.56;6284509;28;20084;-88
2023/03/25 01:01:27;;;;;;;1.55;0.98;;;;;;;6.68;100.00;99336.13;6258656;28;20102;-88
2023/03/25 01:04:29;;;;;;;1.85;0.98;;;;;;;6.85;100.00;99326.19;6268800;28;20094;-88
2023/03/25 01:07:31;;;;;;;2.45;0.90;;;;;;;7.08;100.00;99327.69;6285371;28;20075;-88
2023/03/25 01:10:36;;;;;;;4.85;1.00;;;;;;;7.26;100.00;99324.50;6285198;28;20036;-88
2023/03/25 01:13:39;;;;;;;2.55;1.05;;;;;;;7.31;100.00;99317.22;6289741;28;20048;-88
2023/03/25 01:16:41;;;;;;;2.60;1.10;;;;;;;7.45;100.00;99309.13;6287559;28;20049;-88
2023/03/25 01:19:43;;;;;;;2.00;1.23;;;;;;;7.63;100.00;99311.06;6283526;28;20037;-88
2023/03/25 01:22:45;;;;;;;2.55;0.90;;;;;;;7.64;100.00;99298.03;6286740;28;20091;-88
2023/03/25 01:25:48;;;;;;;2.03;0.85;;;;;;;7.81;100.00;99298.34;6289128;28;20032;-88
2023/03/25 01:28:50;;;;;;;2.60;0.98;;;;;;;7.90;100.00;99285.50;6288251;28;20044;-88
2023/03/25 01:31:52;;;;;;;3.45;1.15;;;;;;;7.92;100.00;99285.34;6286851;28;20025;-88
2023/03/25 01:34:55;;;;;;;1.30;1.20;;;;;;;7.91;100.00;99288.88;6284603;28;20036;-88
2023/03/25 01:37:57;;;;;;;2.17;1.48;;;;;;;7.99;100.00;99281.28;6286859;28;20041;-88
2023/03/25 01:40:59;;;;;;;2.50;1.25;;;;;;;8.01;100.00;99273.41;6283268;28;20118;-88
2023/03/25 01:44:07;;;;;;;3.78;1.50;;;;;;;8.09;100.00;99276.94;6284138;28;20070;-88
2023/03/25 01:47:09;;;;;;;2.65;1.35;;;;;;;8.24;100.00;99256.72;6283784;28;20042;-88
2023/03/25 01:50:13;;;;;;;3.00;1.70;;;;;;;8.14;100.00;99258.47;6286192;28;20430;-88
2023/03/25 01:53:16;;;;;;;2.85;1.67;;;;;;;8.12;100.00;99250.91;6276389;28;20087;-88
2023/03/25 01:56:29;;;;;;;4.13;1.73;;;;;;;8.18;100.00;99257.28;6285067;28;20068;-88
2023/03/25 01:59:31;;;;;;;2.70;1.50;;;;;;;8.18;100.00;99255.50;6293862;28;20059;-88
2023/03/25 02:02:35;;;;;;;2.35;1.10;;;;;;;8.14;100.00;99248.97;6290064;28;20463;-88
2023/03/25 02:06:09;;;;;;;3.70;1.70;;;;;;;8.15;100.00;99248.03;6278193;28;20041;-88
2023/03/25 02:09:13;;;;;;;1.92;1.33;;;;;;;8.06;100.00;99255.78;6282112;28;20060;-88
2023/03/25 02:12:15;;;;;;;3.63;1.85;;;;;;;7.93;100.00;99254.28;6289848;28;20276;-88
2023/03/25 02:15:19;;;;;;;1.92;1.45;;;;;;;7.88;100.00;99253.88;6265565;28;20045;-88
2023/03/25 02:18:42;;;;;;;2.38;1.70;;;;;;;7.82;100.00;99259.56;6286748;28;20512;-89
2023/03/25 02:22:13;;;;;;;2.60;1.38;;;;;;;7.77;100.00;99254.81;6261239;28;20049;-89
2023/03/25 02:25:44;;;;;;;5.10;2.00;;;;;;;7.63;100.00;99255.22;6267229;28;20052;-90
2023/03/25 02:29:10;;;;;;;5.30;2.20;;;;;;;7.65;100.00;99266.22;6276623;28;20060;-89
2023/03/25 02:32:20;;;;;;;3.95;1.85;;;;;;;7.62;100.00;99271.59;6290215;28;20056;-89
2023/03/25 02:35:38;;;;;;;3.45;1.88;;;;;;;7.59;100.00;99261.56;6288440;28;20063;-89
2023/03/25 02:39:24;;;;;;;4.90;1.80;;;;;;;7.54;100.00;99264.56;6289718;28;20052;-89
2023/03/25 02:42:31;;;;;;;3.38;2.00;;;;;;;7.46;100.00;99266.97;6211657;28;20591;-89
2023/03/25 02:45:40;;;;;;;2.85;1.98;;;;;;;7.49;100.00;99255.59;6235573;28;20547;-88
2023/03/25 02:48:52;;;;;;;4.90;2.10;;;;;;;7.48;100.00;99266.88;6218583;28;20095;-89
2023/03/25 02:52:00;;;;;;;2.67;2.00;;;;;;;7.47;100.00;99265.22;6233414;28;20064;-88
2023/03/25 02:55:09;;;;;;;3.88;2.22;;;;;;;7.52;100.00;99260.47;6221819;28;20570;-88
2023/03/25 02:58:15;;;;;;;5.45;2.50;;;;;;;7.63;100.00;99255.22;6235511;28;20053;-88
2023/03/25 03:01:17;;;;;;;3.88;2.45;;;;;;;7.51;100.00;99257.09;6239390;28;20041;-88
2023/03/25 03:04:20;;;;;;;5.35;2.85;;;;;;;7.54;100.00;99246.53;6221710;28;20041;-88
2023/03/25 03:07:33;;;;;;;4.45;2.58;;;;;;;7.41;100.00;99245.97;6224625;28;20448;-89
2023/03/25 03:10:47;;;;;;;6.03;2.60;;;;;;;7.33;100.00;99254.34;6222387;28;20247;-89
2023/03/25 03:14:46;;;;;;;4.78;2.78;;;;;;;7.30;100.00;99252.06;6235823;28;20100;-89
2023/03/25 03:18:06;;;;;;;3.42;2.30;;;;;;;7.24;100.00;99256.91;6200143;28;20081;-89
2023/03/25 03:21:34;;;;;;;4.28;2.00;;;;;;;7.19;100.00;99235.91;6234496;28;20067;-88
2023/03/25 03:24:40;;;;;;;3.53;1.90;;;;;;;7.29;100.00;99226.44;6234574;28;20050;-88
2023/03/25 03:28:05;;;;;;;7.03;2.45;;;;;;;7.29;100.00;99221.28;6230517;28;20057;-88
2023/03/25 03:31:16;;;;;;;4.28;2.70;;;;;;;7.17;100.00;99225.72;6232716;28;20177;-88
2023/03/25 03:34:50;;;;;;;2.80;2.10;;;;;;;7.17;100.00;99241.16;6215116;28;20065;-88
2023/03/25 03:38:01;;;;;;;3.45;1.98;;;;;;;7.15;100.00;99230.19;6222861;28;20673;-88
2023/03/25 03:41:08;;;;;;;5.18;2.30;;;;;;;7.15;100.00;99242.25;6234862;28;20228;-88
2023/03/25 03:44:15;;;;;;;3.03;1.85;;;;;;;7.08;100.00;99240.19;6217573;28;20045;-88
2023/03/25 03:47:28;;;;;;;5.25;2.15;;;;;;;7.12;100.00;99249.28;6238404;28;20049;-88
2023/03/25 03:50:43;;;;;;;5.88;2.08;;;;;;;7.01;100.00;99246.00;6286280;28;20044;-87
2023/03/25 03:53:57;;;;;;;8.07;1.92;;;;;;;7.01;100.00;99246.81;6285629;28;20045;-87
2023/03/25 03:57:01;;;;;;;3.78;2.13;;;;;;;6.96;100.00;99238.66;6286449;28;20085;-87
2023/03/25 04:00:08;;;;;;;5.15;1.77;;;;;;;6.85;100.00;99239.56;6287125;28;20037;-87
2023/03/25 04:03:23;;;;;;;4.25;1.90;;;;;;;6.83;100.00;99236.31;6288747;28;20040;-87
2023/03/25 04:06:37;;;;;;;6.60;2.20;;;;;;;6.89;100.00;99238.34;6286851;28;20123;-87
2023/03/25 04:09:56;;;;;;;4.32;1.92;;;;;;;6.82;100.00;99244.97;6286431;28;20126;-87
2023/03/25 04:13:01;;;;;;;2.85;1.73;;;;;;;6.85;100.00;99249.03;6292526;28;20430;-87
2023/03/25 04:16:03;;;;;;;6.45;2.05;;;;;;;7.07;100.00;99246.28;6298258;28;20040;-87
2023/03/25 04:19:05;;;;;;;5.28;2.53;;;;;;;7.32;100.00;99232.13;6287148;28;20421;-86
2023/03/25 04:22:07;;;;;;;3.95;1.98;;;;;;;7.34;100.00;99237.94;6278189;28;20047;-87
2023/03/25 04:25:09;;;;;;;5.15;1.90;;;;;;;7.25;100.00;99241.31;6287714;28;20505;-86
2023/03/25 04:28:12;;;;;;;4.22;2.00;;;;;;;7.21;100.00;99262.31;6285372;28;20708;-86
2023/03/25 04:31:15;;;;;;;4.45;2.15;;;;;;;6.92;100.00;99249.34;6286352;28;20045;-86
2023/03/25 04:34:19;;;;;;;9.73;2.78;;;;;;;6.69;100.00;99231.50;6285128;28;20056;-87
2023/03/25 04:37:22;;;;;;;4.55;2.08;;;;;;;6.44;100.00;99237.88;6284035;28;20045;-86
2023/03/25 04:40:24;;;;;;;2.95;2.20;;;;;;;6.28;100.00;99240.06;6286634;28;20033;-86
2023/03/25 04:43:27;;;;;;;4.18;2.08;;;;;;;6.33;100.00;99240.50;6286025;28;20122;-86
2023/03/25 04:46:29;;;;;;;7.25;2.50;;;;;;;6.50;100.00;99255.34;6284457;28;20033;-87
2023/03/25 04:49:32;;;;;;;7.40;2.78;;;;;;;6.69;100.00;99244.38;6283652;28;20114;-86
2023/03/25 04:52:37;;;;;;;5.90;2.78;;;;;;;6.86;100.00;99250.69;6280240;28;20053;-87
2023/03/25 04:55:46;;;;;;;6.50;2.70;;;;;;;7.09;100.00;99248.72;6285170;28;20115;-87
2023/03/25 04:58:49;;;;;;;4.03;2.37;;;;;;;7.20;100.00;99256.34;6292191;28;20052;-87
2023/03/25 05:01:51;;;;;;;6.22;2.40;;;;;;;7.16;100.00;99249.03;6286032;28;20449;-87
2023/03/25 05:05:00;;;;;;;3.67;2.45;;;;;;;7.02;100.00;99242.47;6287663;28;20451;-88
2023/03/25 05:08:06;;;;;;;3.15;2.60;;;;;;;6.89;100.00;99258.94;6285637;28;20036;-87
2023/03/25 05:11:08;;;;;;;3.50;2.05;;;;;;;6.98;100.00;99259.09;6283629;28;20114;-87
2023/03/25 05:14:12;;;;;;;5.35;2.65;;;;;;;6.89;100.00;99260.69;6285792;28;20044;-87
2023/03/25 05:17:14;;;;;;;3.65;2.17;;;;;;;6.97;100.00;99268.59;6283303;28;20502;-89
2023/03/25 05:20:16;;;;;;;4.05;2.67;;;;;;;6.93;100.00;99258.69;6292154;28;20052;-90
2023/03/25 05:23:18;;;;;;;4.85;2.63;;;;;;;6.88;100.00;99259.06;6285741;28;20056;-91
2023/03/25 05:26:20;;;;;;;6.57;2.80;;;;;;;6.87;100.00;99268.53;6267801;28;20487;-90
2023/03/25 05:29:22;;;;;;;3.42;2.53;;;;;;;6.82;100.00;99272.44;6279524;28;20690;-87
2023/03/25 05:32:28;;;;;;;3.97;3.00;;;;;;;6.72;100.00;99262.09;6284325;28;20403;-87
2023/03/25 05:35:30;;;;;;;4.75;3.00;;;;;;;6.50;100.00;99263.06;6285074;28;20079;-88
2023/03/25 05:38:33;;;;;;;5.03;3.28;;;;;;;6.42;100.00;99279.13;6286073;28;20049;-89
2023/03/25 05:41:39;;;;;;;6.70;2.53;;;;;;;6.48;100.00;99270.09;6283417;28;20080;-89
2023/03/25 05:44:50;;;;;;;3.10;2.35;;;;;;;6.49;100.00;99279.44;6285272;28;20040;-89
2023/03/25 05:47:53;;;;;;;3.90;2.40;;;;;;;6.52;100.00;99284.31;6284588;28;20521;-90
2023/03/25 05:50:55;;;;;;;4.65;2.25;;;;;;;6.57;100.00;99295.03;6278633;28;20528;-89
2023/03/25 05:53:58;;;;;;;3.97;2.40;;;;;;;6.66;100.00;99291.72;6283898;28;20071;-89
2023/03/25 05:57:00;;;;;;;3.92;2.60;;;;;;;6.73;100.00;99296.34;6281924;28;20044;-89
2023/03/25 06:00:07;;;;;;;5.75;3.08;;;;;;;6.75;100.00;99299.63;6280320;28;20072;-90
2023/03/25 06:03:12;;;;;;;7.55;3.00;;;;;;;6.87;100.00;99293.44;6285467;28;20059;-90
2023/03/25 06:06:24;;;;;;;6.70;3.10;;;;;;;6.93;100.00;99298.06;6287930;28;20048;-90
2023/03/25 06:09:29;;;;;;;7.57;2.92;;;;;;;6.95;100.00;99301.34;6284497;28;20094;-90
2023/03/25 06:12:37;;;;;;;6.13;2.78;;;;;;;6.97;100.00;99289.16;6299306;28;20044;-90
2023/03/25 06:15:40;;;;;;;5.82;2.58;;;;;;;7.02;100.00;99296.50;6288651;28;20052;-90
2023/03/25 06:18:49;;;;;;;4.10;2.58;;;;;;;6.98;100.00;99301.09;6289077;28;20059;-91
2023/03/25 06:21:52;;;;;;;4.43;2.65;;;;;;;7.09;100.00;99306.16;6291276;28;20398;-91
2023/03/25 06:24:54;;;;;;;3.22;2.42;;;;;;;7.24;100.00;99287.78;6290493;28;20377;-91
2023/03/25 06:28:00;;;;;;;6.15;2.70;;;;;;;7.33;100.00;99274.13;6272429;28;20040;-91
2023/03/25 06:31:07;;;;;;;3.60;2.50;;;;;;;7.31;100.00;99266.53;6284908;28;20124;-91
2023/03/25 06:34:09;;;;;;;3.78;2.35;;;;;;;7.41;100.00;99263.19;6289006;28;20391;-91
2023/03/25 06:37:13;;;;;;;6.28;2.92;;;;;;;7.52;100.00;99266.44;6298701;28;20122;-91
2023/03/25 06:40:16;;;;;;;4.15;2.60;;;;;;;7.59;100.00;99269.31;6274535;28;20056;-91
2023/03/25 06:43:19;;;;;;;5.05;2.50;;;;;;;7.58;100.00;99259.97;6287566;28;20044;-91
2023/03/25 06:46:45;;;;;;;3.40;2.70;;;;;;;7.58;100.00;99265.13;6286960;28;20359;-91
2023/03/25 06:50:06;;;;;;;7.57;2.97;;;;;;;7.59;100.00;99271.06;6288874;28;20029;-91
2023/03/25 06:53:10;;;;;;;4.85;2.63;;;;;;;7.63;100.00;99247.50;6294531;28;20037;-91
2023/03/25 06:56:11;;;;;;;5.82;2.22;;;;;;;7.81;100.00;99257.94;6299988;28;20535;-91
2023/03/25 06:59:14;;;;;;;4.03;2.47;;;;;;;7.93;100.00;99253.50;6298231;28;20056;-91
2023/03/25 07:02:16;;;;;;;6.47;2.55;;;;;;;8.10;100.00;99257.13;6290248;28;20045;-92
2023/03/25 07:05:18;;;;;;;5.53;2.42;;;;;;;8.11;100.00;99244.09;6285493;28;20045;-91
2023/03/25 07:08:20;;;;;;;4.38;3.20;;;;;;;7.95;100.00;99247.25;6284142;28;20045;-90
2023/03/25 07:11:31;;;;;;;4.10;2.70;;;;;;;7.93;100.00;99246.56;6287551;28;20169;-90
2023/03/25 07:14:32;;;;;;;5.45;2.95;;;;;;;7.87;100.00;99252.25;6291660;28;20048;-91
2023/03/25 07:17:35;;;;;;;8.20;2.92;;;;;;;8.09;100.00;99245.19;6288957;28;20517;-91
2023/03/25 07:20:36;;;;;;;4.38;2.40;;;;;;;8.18;100.00;99249.53;6282801;28;20407;-90
2023/03/25 07:23:38;;;;;;;6.43;2.85;;;;;;;8.25;100.00;99255.78;6288902;28;20040;-90
2023/03/25 07:26:43;;;;;;;3.38;2.40;;;;;;;8.42;100.00;99251.69;6287962;28;20040;-90
2023/03/25 07:29:47;;;;;;;4.43;2.13;;;;;;;8.48;100.00;99245.97;6286270;28;20063;-90
2023/03/25 07:32:49;;;;;;;3.58;1.92;;;;;;;8.43;100.00;99253.31;6296331;28;20051;-91
2023/03/25 07:35:51;;;;;;;2.40;1.90;;;;;;;8.32;100.00;99256.84;6289365;28;20032;-90
2023/03/25 07:38:54;;;;;;;3.92;1.95;;;;;;;8.23;100.00;99257.66;6288476;28;20647;-90
2023/03/25 07:41:57;;;;;;;3.00;2.20;;;;;;;8.03;100.00;99266.38;6286739;28;20048;-90
2023/03/25 07:45:25;;;;;;;3.17;2.00;;;;;;;7.89;100.00;99267.56;6279807;28;20057;-90
2023/03/25 07:48:30;;;;;;;2.47;1.80;;;;;;;7.83;100.00;99279.25;6308676;28;20436;-90
2023/03/25 07:51:33;;;;;;;5.47;2.05;;;;;;;8.07;100.00;99278.81;6288089;28;20351;-90
2023/03/25 07:54:37;;;;;;;3.35;2.50;;;;;;;8.28;100.00;99281.28;6309784;28;20512;-90
2023/03/25 07:57:40;;;;;;;3.33;2.05;;;;;;;8.45;100.00;99268.63;6287887;28;20501;-90
2023/03/25 08:00:43;;;;;;;6.03;2.17;;;;;;;8.64;100.00;99268.59;6290379;28;20036;-90
2023/03/25 08:03:45;;;;;;;5.43;2.50;;;;;;;8.91;100.00;99274.78;6301678;28;20049;-89
2023/03/25 08:06:47;;;;;;;5.85;2.35;;;;;;;9.07;100.00;99262.09;6279380;28;20417;-90
2023/03/25 08:09:50;;;;;;;3.22;1.85;;;;;;;9.21;100.00;99256.44;6286684;28;20055;-90
2023/03/25 08:12:52;;;;;;;3.35;1.90;;;;;;;9.06;100.00;99257.88;6288488;28;20391;-89
2023/03/25 08:15:54;;;;;;;2.97;1.45;;;;;;;8.88;100.00;99262.16;6286575;28;20242;-89
2023/03/25 08:18:57;;;;;;;3.13;1.75;;;;;;;8.69;100.00;99261.25;6285212;28;20101;-89
2023/03/25 08:21:59;;;;;;;4.80;1.60;;;;;;;8.58;100.00;99266.59;6286826;28;20052;-90
2023/03/25 08:25:02;;;;;;;2.22;1.63;;;;;;;8.48;100.00;99266.63;6284168;28;20037;-90
2023/03/25 08:28:05;;;;;;;6.05;1.60;;;;;;;8.50;100.00;99269.06;6285765;28;20068;-90
2023/03/25 08:31:08;;;;;;;5.47;1.70;;;;;;;8.54;100.00;99284.09;6285740;28;20041;-88
2023/03/25 08:34:10;;;;;;;2.63;1.80;;;;;;;8.48;100.00;99271.78;6283125;28;20133;-88
2023/03/25 08:37:14;;;;;;;3.90;1.60;;;;;;;8.56;100.00;99281.41;6284330;28;20036;-88
2023/03/25 08:40:16;;;;;;;2.42;1.50;;;;;;;8.45;100.00;99284.13;6284373;28;20045;-88
2023/03/25 08:43:18;;;;;;;3.20;1.50;;;;;;;8.44;100.00;99277.34;6287719;28;20805;-88
2023/03/25 08:46:20;;;;;;;2.58;1.45;;;;;;;8.32;100.00;99268.91;6286381;28;20117;-88
2023/03/25 08:49:22;;;;;;;5.03;2.17;;;;;;;8.25;100.00;99271.25;6290672;28;20044;-88
2023/03/25 08:52:26;;;;;;;3.42;1.85;;;;;;;8.31;100.00;99272.44;6285264;28;20050;-88
2023/03/25 08:55:28;;;;;;;6.18;1.67;;;;;;;8.59;100.00;99276.75;6284627;28;20044;-88
2023/03/25 08:58:30;;;;;;;5.28;1.75;;;;;;;8.99;100.00;99275.72;6285583;28;20051;-88
2023/03/25 09:01:32;;;;;;;2.00;1.60;;;;;;;9.47;100.00;99274.66;6289320;28;20040;-89
2023/03/25 09:04:37;;;;;;;1.83;1.60;;;;;;;9.76;100.00;99252.97;6283944;28;20055;-89
2023/03/25 09:07:39;;;;;;;3.47;2.40;;;;;;;10.14;100.00;99262.19;6276298;28;20375;-89
2023/03/25 09:10:41;;;;;;;3.65;2.03;;;;;;;10.53;100.00;99254.13;6285125;28;20170;-88
2023/03/25 09:13:43;;;;;;;3.47;1.60;;;;;;;10.60;100.00;99258.66;6285117;28;20318;-88
2023/03/25 09:16:45;;;;;;;2.97;1.90;;;;;;;10.40;100.00;99258.06;6284020;28;20429;-88
2023/03/25 09:19:48;;;;;;;2.92;1.60;;;;;;;10.03;100.00;99259.03;6288748;28;20070;-88
2023/03/25 09:22:51;;;;;;;2.28;1.60;;;;;;;9.65;100.00;99250.63;6284375;28;20307;-88
2023/03/25 09:25:53;;;;;;;2.17;1.85;;;;;;;9.54;100.00;99261.97;6286032;28;20043;-88
2023/03/25 09:28:55;;;;;;;2.00;1.50;;;;;;;9.69;100.00;99263.09;6285665;28;20395;-88
2023/03/25 09:31:58;;;;;;;4.53;1.60;;;;;;;9.96;100.00;99263.97;6284004;28;20534;-88
2023/03/25 09:35:03;;;;;;;3.70;1.85;;;;;;;10.12;100.00;99258.94;6283121;28;20119;-88
2023/03/25 09:38:05;;;;;;;4.90;2.17;;;;;;;10.09;100.00;99258.44;6285624;28;20109;-88
2023/03/25 09:41:33;;;;;;;3.85;2.10;;;;;;;10.09;100.00;99266.19;6285505;28;20493;-88
2023/03/25 09:44:49;;;;;;;4.72;2.15;;;;;;;10.18;100.00;99264.47;6279221;28;20369;-88
2023/03/25 09:48:01;;;;;;;4.47;2.15;;;;;;;10.33;100.00;99266.44;6285419;28;20029;-88
2023/03/25 09:51:10;;;;;;;3.17;2.08;;;;;;;10.35;100.00;99271.44;6284851;28;20183;-88
2023/03/25 09:54:29;;;;;;;3.63;2.20;;;;;;;10.48;100.00;99265.84;6285238;28;20053;-88
2023/03/25 09:57:40;;;;;;;7.82;3.47;;;;;;;10.73;100.00;99272.81;6283652;28;20116;-88
2023/03/25 10:00:44;;;;;;;6.50;2.70;;;;;;;10.93;100.00;99268.25;6271692;28;20044;-87
2023/03/25 10:04:21;;;;;;;5.18;2.80;;;;;;;11.07;100.00;99260.84;6285516;28;20549;-88
2023/03/25 10:08:04;;;;;;;6.00;2.53;;;;;;;11.26;100.00;99257.22;6285112;28;20059;-87
2023/03/25 10:11:17;;;;;;;5.63;2.40;;;;;;;11.35;100.00;99259.66;6229874;28;20053;-88
2023/03/25 10:14:44;;;;;;;5.15;2.78;;;;;;;11.59;100.00;99258.09;6228326;28;20050;-88
2023/03/25 10:18:17;;;;;;;5.82;2.55;;;;;;;11.55;100.00;99255.03;6237381;28;20077;-87
2023/03/25 10:21:57;;;;;;;3.83;2.30;;;;;;;11.30;100.00;99248.94;6224216;28;20061;-86
2023/03/25 10:25:05;;;;;;;3.83;2.03;;;;;;;11.40;100.00;99261.75;6222109;28;20049;-87
2023/03/25 10:28:17;;;;;;;5.07;2.45;;;;;;;11.42;100.00;99259.81;6239622;28;20085;-87
2023/03/25 10:31:24;;;;;;;5.13;2.65;;;;;;;11.30;100.00;99248.94;6229381;28;20516;-88
2023/03/25 10:34:56;;;;;;;3.60;2.08;;;;;;;11.43;100.00;99253.69;6228897;28;20053;-87
2023/03/25 10:38:20;;;;;;;4.88;2.90;;;;;;;11.10;100.00;99265.72;6228029;28;20170;-86
2023/03/25 10:41:34;;;;;;;5.68;2.60;;;;;;;10.93;100.00;99252.72;6221470;28;20124;-87
2023/03/25 10:44:38;;;;;;;3.70;2.63;;;;;;;11.06;100.00;99239.31;6213652;28;20049;-87
2023/03/25 10:47:44;;;;;;;4.07;2.95;;;;;;;11.35;100.00;99238.09;6254141;28;20049;-87
2023/03/25 10:50:48;;;;;;;7.95;2.92;;;;;;;11.59;100.00;99243.34;6291170;28;20466;-87
2023/03/25 10:53:51;;;;;;;5.80;2.90;;;;;;;11.44;100.00;99234.56;6290501;28;20044;-87
2023/03/25 10:56:57;;;;;;;6.75;2.63;;;;;;;11.68;100.00;99226.03;6290301;28;20051;-87
2023/03/25 11:00:19;;;;;;;5.70;2.55;;;;;;;11.78;100.00;99233.66;6275383;28;20079;-87
2023/03/25 11:03:30;;;;;;;4.15;2.28;;;;;;;11.66;100.00;99237.53;6278522;28;20040;-86
2023/03/25 11:06:36;;;;;;;3.72;2.55;;;;;;;11.60;100.00;99226.00;6270431;28;20067;-87
2023/03/25 11:09:41;;;;;;;6.68;2.58;;;;;;;11.53;100.00;99230.25;6286327;28;20125;-87
2023/03/25 11:12:46;;;;;;;4.18;2.30;;;;;;;11.28;100.00;99219.81;6311078;28;20044;-87
2023/03/25 11:15:52;;;;;;;4.85;2.08;;;;;;;11.07;100.00;99229.78;6288414;28;20052;-87
2023/03/25 11:18:54;;;;;;;4.63;1.88;;;;;;;10.98;100.00;99229.75;6276122;28;20052;-86
2023/03/25 11:22:01;;;;;;;4.22;2.25;;;;;;;11.26;100.00;99237.28;6285845;28;20044;-86
2023/03/25 11:25:11;;;;;;;4.25;1.83;;;;;;;11.52;100.00;99236.38;6282564;28;20037;-87
2023/03/25 11:28:31;;;;;;;6.97;2.35;;;;;;;11.75;100.00;99234.81;6282200;28;20447;-87
2023/03/25 11:31:35;;;;;;;5.47;2.40;;;;;;;11.53;100.00;99233.63;6269232;28;20059;-87
2023/03/25 11:34:45;;;;;;;5.13;1.88;;;;;;;11.40;100.00;99230.66;6288441;28;20085;-86
2023/03/25 11:38:00;;;;;;;3.28;1.80;;;;;;;11.34;100.00;99246.84;6287814;28;20480;-87
2023/03/25 11:41:02;;;;;;;4.82;2.22;;;;;;;11.12;100.00;99225.75;6281952;28;20123;-87
2023/03/25 11:44:06;;;;;;;4.30;2.10;;;;;;;11.20;100.00;99243.09;6284272;28;20044;-86
2023/03/25 11:47:10;;;;;;;5.35;2.28;;;;;;;11.40;100.00;99234.09;6291110;28;20952;-87
2023/03/25 11:50:23;;;;;;;4.85;2.50;;;;;;;11.64;100.00;99227.31;6292415;28;20036;-87
2023/03/25 11:53:31;;;;;;;3.95;2.08;;;;;;;11.95;100.00;99226.72;6287410;28;20044;-87
2023/03/25 11:56:47;;;;;;;5.53;2.33;;;;;;;12.19;100.00;99242.28;6290720;28;20101;-86
2023/03/25 11:59:59;;;;;;;4.20;2.60;;;;;;;12.07;100.00;99235.78;6283111;28;20064;-86
2023/03/25 12:03:18;;;;;;;4.60;2.58;;;;;;;11.77;100.00;99217.28;6286789;28;20413;-87
2023/03/25 12:06:22;;;;;;;7.40;2.85;;;;;;;11.69;100.00;99227.66;6284968;28;20048;-86
2023/03/25 12:09:28;;;;;;;4.00;2.58;;;;;;;12.00;100.00;99217.50;6284051;28;20044;-87
2023/03/25 12:12:43;;;;;;;4.32;2.55;;;;;;;12.68;100.00;99223.22;6287226;28;20558;-88
2023/03/25 12:16:26;;;;;;;6.22;2.67;;;;;;;13.34;100.00;99222.00;6296015;28;20072;-87
2023/03/25 12:19:56;;;;;;;4.30;2.30;;;;;;;13.21;100.00;99219.09;6276776;28;20578;-87
2023/03/25 12:23:16;;;;;;;7.15;2.45;;;;;;;12.49;100.00;99207.03;6280391;28;20044;-86
2023/03/25 12:26:28;;;;;;;;;;;;;;;12.13;100.00;99200.63;6286834;28;20040;-87
2023/03/25 12:29:50;;;;;;;7.22;3.85;;;;;;;12.05;100.00;99201.47;6285589;28;19962;-86
2023/03/25 12:32:55;;;;;;;8.15;2.50;;;;;;;12.18;100.00;99206.94;6286256;28;20550;-86
2023/03/25 12:36:15;;;;;;;4.32;2.42;;;;;;;12.10;100.00;99204.38;6286097;28;20045;-86
2023/03/25 12:39:31;;;;;;;4.78;2.47;;;;;;;12.15;100.00;99212.47;6285660;28;20510;-86
2023/03/25 12:43:03;;;;;;;4.90;2.53;;;;;;;12.00;100.00;99216.66;6281719;28;20044;-86
2023/03/25 12:46:39;;;;;;;5.95;2.33;;;;;;;11.99;100.00;99212.47;6284068;28;20047;-86
2023/03/25 12:50:19;;;;;;;5.93;2.50;;;;;;;12.18;100.00;99221.72;6286167;28;20043;-86
2023/03/25 12:53:46;;;;;;;6.07;2.90;;;;;;;12.23;100.00;99204.66;6280560;28;20047;-86
2023/03/25 12:57:09;;;;;;;3.63;2.35;;;;;;;12.63;100.00;99199.56;6286835;28;20086;-86
2023/03/25 13:00:54;;;;;;;4.30;2.00;;;;;;;12.42;100.00;99193.13;6294700;28;20592;-86
2023/03/25 13:04:14;;;;;;;3.88;2.30;;;;;;;12.22;100.00;99194.44;6296017;28;20040;-86
2023/03/25 13:07:27;;;;;;;6.15;2.45;;;;;;;12.12;100.00;99175.66;6294255;28;20043;-86
2023/03/25 13:10:34;;;;;;;6.43;2.30;;;;;;;12.29;100.00;99185.03;6294086;28;20052;-86
2023/03/25 13:13:38;;;;;;;4.43;2.58;;;;;;;12.53;100.00;99183.38;6287374;28;20410;-86
2023/03/25 13:16:43;;;;;;;4.18;2.00;;;;;;;12.52;100.00;99174.78;6298579;28;20044;-86
2023/03/25 13:19:46;;;;;;;2.85;1.90;;;;;;;12.40;100.00;99179.50;6284967;28;20040;-86
2023/03/25 13:22:56;;;;;;;7.80;2.47;;;;;;;12.11;100.00;99190.41;6286149;28;20726;-87
2023/03/25 13:26:01;;;;;;;3.00;1.92;;;;;;;12.04;100.00;99181.66;6284148;28;20048;-86
2023/03/25 13:29:23;;;;;;;3.33;2.20;;;;;;;11.83;100.00;99182.94;6286079;28;20048;-86
2023/03/25 13:32:46;;;;;;;5.40;2.10;;;;;;;11.61;100.00;99193.97;6285136;28;20037;-86
2023/03/25 13:36:30;;;;;;;3.95;1.52;;;;;;;11.34;100.00;99179.50;6282478;28;20193;-86
2023/03/25 13:39:36;;;;;;;6.75;2.00;;;;;;;11.11;100.00;99193.06;6231989;28;20053;-86
2023/03/25 13:42:59;;;;;;;6.20;2.47;;;;;;;10.94;100.00;99212.09;6219942;28;20061;-86
2023/03/25 13:46:15;;;;;;;6.85;2.83;;;;;;;10.32;100.00;99207.06;6214713;28;20054;-87
2023/03/25 13:49:36;;;;;;;6.18;2.95;;;;;;;9.63;100.00;99231.84;6232042;28;20049;-87
2023/03/25 13:52:42;;;;;;;7.07;3.15;;;;;;;9.21;100.00;99233.19;6232030;28;20048;-89
2023/03/25 13:55:54;;;;;;;7.68;3.10;;;;;;;9.02;100.00;99251.38;6216614;28;20701;-85
2023/03/25 13:58:58;;;;;;;5.95;3.13;;;;;;;8.80;100.00;99245.63;6229647;28;20049;-84
2023/03/25 14:02:31;;;;;;;4.57;3.38;;;;;;;8.73;100.00;99238.59;6236724;28;20063;-85
2023/03/25 14:05:51;;;;;;;6.72;3.70;;;;;;;9.05;100.00;99244.16;6233426;28;20046;-86
2023/03/25 14:09:14;;;;;;;6.38;2.40;;;;;;;9.11;100.00;99234.22;6231310;28;20522;-87
2023/03/25 14:12:34;;;;;;;4.65;2.30;;;;;;;9.01;100.00;99247.16;6234224;28;20057;-88
2023/03/25 14:15:41;;;;;;;5.40;2.33;;;;;;;8.79;100.00;99238.00;6239633;28;20065;-86
2023/03/25 14:18:48;;;;;;;5.63;1.85;;;;;;;8.51;100.00;99247.47;6282107;28;20041;-84
2023/03/25 14:21:51;;;;;;;5.05;2.08;;;;;;;8.44;100.00;99236.09;6285701;28;20048;-85
2023/03/25 14:24:54;;;;;;;2.70;1.70;;;;;;;8.36;100.00;99237.56;6285362;28;20044;-86
2023/03/25 14:27:56;;;;;;;3.25;1.48;;;;;;;8.37;100.00;99225.47;6289616;28;20136;-88
2023/03/25 14:31:29;;;;;;;5.82;1.70;;;;;;;8.38;100.00;99240.00;6287963;28;20139;-88
2023/03/25 14:34:32;;;;;;;5.70;2.42;;;;;;;8.35;100.00;99235.94;6297529;28;20457;-88
2023/03/25 14:37:34;;;;;;;4.32;1.65;;;;;;;8.48;100.00;99242.59;6290956;28;20644;-84
2023/03/25 14:40:51;;;;;;;4.82;2.13;;;;;;;8.48;100.00;99230.50;6288954;28;20055;-83
2023/03/25 14:44:18;;;;;;;6.85;2.20;;;;;;;8.67;100.00;99228.81;6285698;28;20036;-84
2023/03/25 14:47:32;;;;;;;2.35;1.52;;;;;;;8.59;100.00;99208.88;6293042;28;20047;-87